createdAt,value
2023-05-10T00:03:33.470Z,100259.75
2023-05-10T00:08:36.596Z,100264.31
2023-05-10T00:13:39.538Z,100261.25
2023-05-10T00:18:42.777Z,100270.84
2023-05-10T00:23:45.722Z,100270.06
2023-05-10T00:28:48.913Z,100266.66
2023-05-10T00:33:51.781Z,100269.72
2023-05-10T00:38:55.351Z,100266.25
2023-05-10T00:43:58.318Z,100262.34
2023-05-10T00:49:01.616Z,100258.56
2023-05-10T00:54:06.593Z,100258.44
2023-05-10T00:59:10.180Z,100257.66
2023-05-10T01:04:14.394Z,100261.81
2023-05-10T01:09:19.294Z,100267.13
2023-05-10T01:14:22.772Z,100270.09
2023-05-10T01:19:32.061Z,100264.25
2023-05-10T01:24:59.471Z,100273.47
2023-05-10T01:30:22.309Z,100265.69
2023-05-10T01:35:38.148Z,100267.59
2023-05-10T01:41:04.318Z,100266.47
2023-05-10T01:46:12.256Z,100267.22
2023-05-10T01:51:47.398Z,100275.16
2023-05-10T01:56:58.538Z,100265.22
2023-05-10T02:02:03.344Z,100265.22
2023-05-10T02:07:07.932Z,100264.16
2023-05-10T02:12:13.587Z,100265.41
2023-05-10T02:17:37.542Z,100259.28
2023-05-10T02:22:44.388Z,100263.06
2023-05-10T02:27:48.956Z,100265.00
2023-05-10T02:32:53.606Z,100264.25
2023-05-10T02:37:59.816Z,100262.28
2023-05-10T02:43:05.345Z,100263.34
2023-05-10T02:48:26.869Z,100257.25
2023-05-10T02:53:34.382Z,100254.25
2023-05-10T02:58:37.454Z,100251.31
2023-05-10T03:03:40.489Z,100248.41
2023-05-10T03:08:45.832Z,100251.56
2023-05-10T03:14:10.327Z,100248.63
2023-05-10T03:19:33.637Z,100247.19
2023-05-10T03:24:40.748Z,100244.22
2023-05-10T03:29:47.643Z,100236.94
2023-05-10T03:34:51.538Z,100246.25
2023-05-10T03:39:54.487Z,100237.09
2023-05-10T03:44:57.888Z,100248.31
2023-05-10T03:50:01.438Z,100242.66
2023-05-10T03:55:08.867Z,100244.66
2023-05-10T04:00:12.581Z,100242.81
2023-05-10T04:05:17.864Z,100238.63
2023-05-10T04:10:21.824Z,100240.06
2023-05-10T04:15:25.023Z,100244.16
2023-05-10T04:20:28.010Z,100243.28
2023-05-10T04:25:31.402Z,100233.00
2023-05-10T04:30:34.542Z,100216.06
2023-05-10T04:35:37.618Z,100216.47
2023-05-10T04:40:40.563Z,100215.28
2023-05-10T04:46:02.377Z,100218.78
2023-05-10T04:51:05.489Z,100213.34
2023-05-10T04:56:08.792Z,100214.44
2023-05-10T05:01:11.901Z,100209.94
2023-05-10T05:06:15.016Z,100201.47
2023-05-10T05:11:19.410Z,100207.84
2023-05-10T05:16:22.755Z,100190.31
2023-05-10T05:21:28.027Z,100189.31
2023-05-10T05:26:31.381Z,100180.41
2023-05-10T05:31:34.427Z,100168.25
2023-05-10T05:36:41.555Z,100173.31
2023-05-10T05:41:44.842Z,100175.44
2023-05-10T05:46:47.839Z,100162.72
2023-05-10T05:51:51.482Z,100163.50
2023-05-10T05:57:01.785Z,100164.56
2023-05-10T06:02:23.500Z,100158.97
2023-05-10T06:07:27.000Z,100153.69
2023-05-10T06:12:29.779Z,100141.38
2023-05-10T06:17:32.608Z,100138.25
2023-05-10T06:22:35.959Z,100144.06
2023-05-10T06:27:39.301Z,100143.09
2023-05-10T06:32:45.134Z,100140.84
2023-05-10T06:37:48.103Z,100132.53
2023-05-10T06:42:51.277Z,100131.28
2023-05-10T06:47:54.573Z,100130.38
2023-05-10T06:52:57.780Z,100122.09
2023-05-10T06:58:00.749Z,100115.25
2023-05-10T07:03:03.888Z,100122.03
2023-05-10T07:08:25.433Z,100123.91
2023-05-10T07:13:28.409Z,100106.44
2023-05-10T07:18:31.346Z,100110.28
2023-05-10T07:23:34.861Z,100095.31
2023-05-10T07:28:38.775Z,100098.63
2023-05-10T07:33:41.879Z,100091.59
2023-05-10T07:38:44.849Z,100085.88
2023-05-10T07:43:47.964Z,100083.84
2023-05-10T07:48:54.200Z,100077.06
2023-05-10T07:53:58.310Z,100082.34
2023-05-10T07:59:01.545Z,100077.91
2023-05-10T08:04:05.477Z,100069.00
2023-05-10T08:09:08.736Z,100062.69
2023-05-10T08:14:11.844Z,100052.03
2023-05-10T08:19:14.804Z,100061.81
2023-05-10T08:24:17.783Z,100067.22
2023-05-10T08:29:20.761Z,100058.66
2023-05-10T08:34:23.631Z,100041.56
2023-05-10T08:39:30.509Z,100039.69
2023-05-10T08:44:36.397Z,100038.50
2023-05-10T08:49:40.108Z,100033.16
2023-05-10T08:54:43.795Z,100028.19
2023-05-10T08:59:47.958Z,100021.13
2023-05-10T09:04:51.197Z,100012.00
2023-05-10T09:09:55.546Z,100011.69
2023-05-10T09:15:01.084Z,100006.19
2023-05-10T09:20:05.643Z,100011.75
2023-05-10T09:25:16.643Z,100003.59
2023-05-10T09:30:28.165Z,100002.63
2023-05-10T09:35:33.359Z,100002.09
2023-05-10T09:40:36.380Z,99991.41
2023-05-10T09:45:39.423Z,99995.72
2023-05-10T09:51:01.918Z,99984.63
2023-05-10T09:56:05.039Z,99983.66
2023-05-10T10:01:16.199Z,99979.94
2023-05-10T10:06:29.456Z,99989.72
2023-05-10T10:11:34.000Z,99973.63
2023-05-10T10:16:39.939Z,99982.78
2023-05-10T10:21:50.900Z,99980.69
2023-05-10T10:26:58.523Z,99972.81
2023-05-10T10:32:31.572Z,99979.84
2023-05-10T10:37:48.578Z,99975.03
2023-05-10T10:42:51.506Z,99974.75
2023-05-10T10:48:13.651Z,99982.53
2023-05-10T10:53:16.522Z,99979.50
2023-05-10T10:58:35.524Z,99965.75
2023-05-10T11:03:38.425Z,99962.41
2023-05-10T11:08:45.100Z,99963.50
2023-05-10T11:13:51.736Z,99959.03
2023-05-10T11:19:03.836Z,99956.97
2023-05-10T11:24:15.098Z,99947.03
2023-05-10T11:29:18.048Z,99947.16
2023-05-10T11:34:28.230Z,99946.47
2023-05-10T11:39:33.104Z,99943.50
2023-05-10T11:44:36.676Z,99928.91
2023-05-10T11:49:39.833Z,99929.66
2023-05-10T11:54:56.082Z,99931.75
2023-05-10T11:59:59.322Z,99921.50
2023-05-10T12:05:04.423Z,99923.00
2023-05-10T12:10:11.461Z,99912.72
2023-05-10T12:15:25.514Z,99914.63
2023-05-10T12:20:29.246Z,99919.63
2023-05-10T12:25:34.395Z,99910.66
2023-05-10T12:30:37.912Z,99905.38
2023-05-10T12:35:54.467Z,99904.88
2023-05-10T12:41:05.015Z,99901.06
2023-05-10T12:46:18.216Z,99902.28
2023-05-10T12:51:23.400Z,99890.72
2023-05-10T12:56:26.486Z,99887.50
2023-05-10T13:01:29.602Z,99886.38
2023-05-10T13:06:33.092Z,99875.16
2023-05-10T13:11:36.643Z,99882.94
2023-05-10T13:16:39.578Z,99885.47
2023-05-10T13:21:42.556Z,99883.41
2023-05-10T13:26:45.613Z,99878.84
2023-05-10T13:31:48.631Z,99874.88
2023-05-10T13:36:51.523Z,99879.59
2023-05-10T13:41:55.849Z,99875.78
2023-05-10T13:46:58.830Z,99876.66
2023-05-10T13:52:08.031Z,99874.59
2023-05-10T13:57:13.120Z,99867.91
2023-05-10T14:02:16.170Z,99865.16
2023-05-10T14:07:19.112Z,99864.38
2023-05-10T14:12:22.207Z,99857.25
2023-05-10T14:17:25.088Z,99869.97
2023-05-10T14:22:28.114Z,99866.47
2023-05-10T14:27:31.628Z,99860.25
2023-05-10T14:32:35.179Z,99861.03
2023-05-10T14:37:38.679Z,99859.47
2023-05-10T14:42:41.643Z,99864.09
2023-05-10T14:47:44.545Z,99854.84
2023-05-10T14:52:47.511Z,99857.56
2023-05-10T14:57:51.812Z,99848.63
2023-05-10T15:02:54.857Z,99845.13
2023-05-10T15:07:58.172Z,99847.69
2023-05-10T15:13:01.574Z,99853.81
2023-05-10T15:18:04.658Z,99851.56
2023-05-10T15:23:07.714Z,99847.50
2023-05-10T15:28:11.019Z,99850.59
2023-05-10T15:33:14.145Z,99848.41
2023-05-10T15:38:17.531Z,99846.28
2023-05-10T15:43:20.526Z,99846.72
2023-05-10T15:48:42.765Z,99841.16
2023-05-10T15:54:00.422Z,99838.28
2023-05-10T15:59:08.950Z,99847.66
2023-05-10T16:04:11.718Z,99844.41
2023-05-10T16:09:14.636Z,99844.94
2023-05-10T16:14:17.852Z,99843.63
2023-05-10T16:19:20.903Z,99845.44
2023-05-10T16:24:42.727Z,99850.75
2023-05-10T16:29:47.620Z,99853.53
2023-05-10T16:35:09.729Z,99854.75
2023-05-10T16:40:12.934Z,99854.97
2023-05-10T16:45:16.699Z,99858.53
2023-05-10T16:50:19.898Z,99861.97
2023-05-10T16:55:25.410Z,99859.25
2023-05-10T17:00:29.555Z,99861.88
2023-05-10T17:05:32.345Z,99866.19
2023-05-10T17:10:35.144Z,99865.41
2023-05-10T17:15:39.524Z,99874.59
2023-05-10T17:20:44.864Z,99867.91
2023-05-10T17:25:47.836Z,99873.91
2023-05-10T17:30:57.528Z,99872.53
2023-05-10T17:36:00.385Z,99870.31
2023-05-10T17:41:22.023Z,99878.13
2023-05-10T17:46:25.265Z,99864.28
2023-05-10T17:51:29.124Z,99870.19
2023-05-10T17:56:32.180Z,99864.00
2023-05-10T18:01:35.459Z,99873.88
2023-05-10T18:06:39.313Z,99862.63
2023-05-10T18:11:42.408Z,99863.75
2023-05-10T18:16:45.774Z,99864.63
2023-05-10T18:21:49.553Z,99866.63
2023-05-10T18:26:52.921Z,99872.31
2023-05-10T18:31:55.755Z,99866.13
2023-05-10T18:37:17.382Z,99869.06
2023-05-10T18:42:20.888Z,99868.81
2023-05-10T18:47:43.196Z,99871.34
2023-05-10T18:52:46.814Z,99870.53
2023-05-10T18:57:49.708Z,99866.53
2023-05-10T19:02:53.848Z,99866.66
2023-05-10T19:07:57.255Z,99873.28
2023-05-10T19:13:00.053Z,99873.94
2023-05-10T19:18:05.141Z,99868.44
2023-05-10T19:23:10.279Z,99861.38
2023-05-10T19:28:13.401Z,99866.97
2023-05-10T19:33:18.602Z,99868.66
2023-05-10T19:38:22.848Z,99866.81
2023-05-10T19:43:26.826Z,99865.31
2023-05-10T19:48:30.595Z,99857.19
2023-05-10T19:53:33.781Z,99866.53
2023-05-10T19:58:36.997Z,99857.47
2023-05-10T20:03:39.963Z,99859.78
2023-05-10T20:08:43.030Z,99860.50
2023-05-10T20:13:46.129Z,99863.28
2023-05-10T20:18:49.300Z,99868.03
2023-05-10T20:23:52.696Z,99864.25
2023-05-10T20:28:56.013Z,99863.06
2023-05-10T20:33:58.997Z,99872.53
2023-05-10T20:39:02.038Z,99874.78
2023-05-10T20:44:06.218Z,99868.00
2023-05-10T20:49:09.513Z,99863.78
2023-05-10T20:54:12.546Z,99860.81
2023-05-10T20:59:15.549Z,99859.72
2023-05-10T21:04:37.153Z,99869.47
2023-05-10T21:09:40.177Z,99865.28
2023-05-10T21:14:44.515Z,99861.88
2023-05-10T21:19:47.547Z,99854.97
2023-05-10T21:24:50.783Z,99865.38
2023-05-10T21:30:12.701Z,99863.47
2023-05-10T21:35:16.182Z,99857.44
2023-05-10T21:40:19.520Z,99857.72
2023-05-10T21:45:23.240Z,99853.50
2023-05-10T21:50:26.492Z,99851.38
2023-05-10T21:55:29.651Z,99851.03
2023-05-10T22:00:34.174Z,99848.66
2023-05-10T22:05:37.602Z,99854.06
2023-05-10T22:10:40.622Z,99846.03
2023-05-10T22:15:44.537Z,99851.47
2023-05-10T22:20:47.718Z,99843.41
2023-05-10T22:25:50.748Z,99845.16
2023-05-10T22:30:53.882Z,99839.84
2023-05-10T22:35:56.810Z,99834.84
2023-05-10T22:40:59.688Z,99836.06
2023-05-10T22:46:02.692Z,99838.00
2023-05-10T22:51:05.642Z,99831.06
2023-05-10T22:56:08.689Z,99838.34
2023-05-10T23:01:11.890Z,99840.63
2023-05-10T23:06:14.970Z,99841.41
2023-05-10T23:11:17.959Z,99841.78
2023-05-10T23:16:21.484Z,99848.38
2023-05-10T23:21:25.402Z,99843.41
2023-05-10T23:26:28.444Z,99841.50
2023-05-10T23:31:31.456Z,99842.66
2023-05-10T23:36:34.563Z,99843.44
2023-05-10T23:41:37.648Z,99839.97
2023-05-10T23:46:40.602Z,99839.22
2023-05-10T23:51:43.677Z,99830.44
2023-05-10T23:56:46.566Z,99827.34
